Time;durP1;ratioP1;P1;durP2;ratioP2;P2;SDS_P1;SDS_P2;PMS_P1;PMS_P2;Temp;Humidity;BMP_temperature;BMP_pressure;BME280_temperature;BME280_humidity;BME280_pressure;Samples;Min_cycle;Max_cycle;Signal;HPM_P1;HPM_P2
2023/09/26 00:01:28;;;;;;;12.90;4.50;;;;;;;22.87;31.78;101314.71;108122;1288;21999;-65
2023/09/26 00:03:54;;;;;;;10.20;4.60;;;;;;;22.86;31.81;101312.07;108088;1287;21989;-66
2023/09/26 00:06:20;;;;;;;15.30;5.10;;;;;;;22.85;31.70;101313.71;108118;1288;21992;-66
2023/09/26 00:08:46;;;;;;;10.20;4.50;;;;;;;22.84;31.64;101312.15;108136;1283;21989;-66
2023/09/26 00:11:13;;;;;;;9.90;4.60;;;;;;;22.83;31.70;101314.88;108123;1288;22002;-66
2023/09/26 00:13:38;;;;;;;10.50;4.60;;;;;;;22.80;31.81;101312.88;108202;1288;21993;-66
2023/09/26 00:16:06;;;;;;;11.60;4.90;;;;;;;22.79;31.67;101313.16;108135;1288;22000;-62
2023/09/26 00:18:32;;;;;;;9.80;4.40;;;;;;;22.76;31.76;101311.65;107379;1288;1002581;-60
2023/09/26 00:20:58;;;;;;;9.40;4.40;;;;;;;22.75;31.86;101318.14;108107;1288;22029;-61
2023/09/26 00:23:24;;;;;;;8.60;4.30;;;;;;;22.74;31.65;101320.18;108210;1288;22049;-66
2023/09/26 00:25:50;;;;;;;9.00;4.50;;;;;;;22.70;31.67;101316.60;108169;1288;21985;-65
2023/09/26 00:28:15;;;;;;;8.60;4.70;;;;;;;22.68;31.68;101318.67;108112;1288;22274;-59
2023/09/26 00:30:42;;;;;;;11.00;4.80;;;;;;;22.67;31.63;101317.48;108126;1283;22001;-60
2023/09/26 00:33:08;;;;;;;9.00;4.30;;;;;;;22.65;31.63;101316.52;108126;1283;22039;-59
2023/09/26 00:35:34;;;;;;;11.50;4.30;;;;;;;22.63;31.65;101319.65;108119;1288;21979;-64
2023/09/26 00:38:00;;;;;;;10.30;4.30;;;;;;;22.60;31.74;101321.91;108098;1280;21990;-58
2023/09/26 00:40:25;;;;;;;13.90;4.60;;;;;;;22.58;31.63;101323.26;108152;1287;21956;-65
2023/09/26 00:42:51;;;;;;;9.80;3.80;;;;;;;22.55;31.68;101326.79;108090;1288;21994;-64
2023/09/26 00:45:16;;;;;;;13.00;4.20;;;;;;;22.52;31.64;101324.42;108121;1288;22018;-64
2023/09/26 00:47:43;;;;;;;12.70;4.10;;;;;;;22.50;31.62;101325.25;108116;1288;21992;-58
2023/09/26 00:50:12;;;;;;;10.90;4.00;;;;;;;22.49;31.68;101325.14;108114;1288;24373;-66
2023/09/26 00:52:39;;;;;;;10.30;4.80;;;;;;;22.43;31.70;101316.79;108158;1276;21992;-64
2023/09/26 00:55:05;;;;;;;10.90;4.50;;;;;;;22.37;31.59;101319.03;108172;1283;21998;-63
2023/09/26 00:57:32;;;;;;;10.80;4.70;;;;;;;22.33;31.70;101318.48;108104;1283;21957;-65
2023/09/26 00:59:58;;;;;;;10.50;4.90;;;;;;;22.32;31.75;101322.66;108145;1283;22754;-58
2023/09/26 01:02:23;;;;;;;9.80;4.20;;;;;;;22.32;32.15;101325.33;107905;1288;21989;-64
2023/09/26 01:04:49;;;;;;;9.90;5.00;;;;;;;22.35;31.94;101328.77;108087;1288;21995;-64
2023/09/26 01:07:14;;;;;;;10.70;4.70;;;;;;;22.37;32.01;101328.16;108129;1288;21989;-64
2023/09/26 01:09:40;;;;;;;13.90;4.40;;;;;;;22.38;31.97;101330.77;108095;1287;21990;-58
2023/09/26 01:12:07;;;;;;;11.20;4.20;;;;;;;22.40;31.75;101329.81;108121;1288;21987;-64
2023/09/26 01:14:33;;;;;;;7.70;3.90;;;;;;;22.39;31.89;101328.04;108114;1278;21998;-59
2023/09/26 01:16:58;;;;;;;8.50;4.40;;;;;;;22.38;31.80;101327.75;108139;1283;21990;-58
2023/09/26 01:19:24;;;;;;;9.70;4.70;;;;;;;22.35;31.85;101328.58;108181;1288;21999;-64
2023/09/26 01:21:49;;;;;;;8.90;4.30;;;;;;;22.31;31.90;101327.70;108068;1279;22017;-58
2023/09/26 01:24:17;;;;;;;8.30;4.00;;;;;;;22.27;31.82;101324.51;107825;1281;21989;-58
2023/09/26 01:26:42;;;;;;;11.50;4.50;;;;;;;22.23;31.82;101324.89;108125;1280;22037;-58
2023/09/26 01:29:10;;;;;;;11.60;4.50;;;;;;;22.18;31.86;101326.34;108128;1284;22027;-58
2023/09/26 01:31:36;;;;;;;10.30;4.30;;;;;;;22.13;31.86;101326.02;108175;1284;21997;-64
2023/09/26 01:34:02;;;;;;;12.30;4.20;;;;;;;22.09;31.92;101326.04;107391;1288;1002244;-60
2023/09/26 01:36:29;;;;;;;9.90;4.40;;;;;;;22.04;32.07;101324.66;108116;1280;21992;-59
2023/09/26 01:38:55;;;;;;;9.80;4.80;;;;;;;22.01;32.13;101324.25;108227;1288;21992;-64
2023/09/26 01:41:22;;;;;;;14.10;4.40;;;;;;;21.98;32.16;101319.54;108114;1284;22234;-64
2023/09/26 01:43:47;;;;;;;9.10;4.50;;;;;;;21.95;32.07;101320.58;107392;1276;1002416;-58
2023/09/26 01:46:13;;;;;;;8.90;4.60;;;;;;;21.92;32.09;101320.16;108101;1280;21990;-59
2023/09/26 01:48:38;;;;;;;8.40;4.80;;;;;;;21.90;32.16;101319.76;108125;1286;21997;-59
2023/09/26 01:51:05;;;;;;;10.60;5.00;;;;;;;21.88;32.22;101321.63;108094;1288;21991;-64
2023/09/26 01:53:31;;;;;;;9.60;4.40;;;;;;;21.87;32.22;101320.77;108060;1288;22032;-65
2023/09/26 01:55:59;;;;;;;8.50;4.00;;;;;;;21.86;32.34;101320.79;108120;1288;21988;-58
2023/09/26 01:58:25;;;;;;;10.40;4.50;;;;;;;21.87;32.34;101322.03;107964;1287;21993;-59
2023/09/26 02:00:51;;;;;;;14.20;4.60;;;;;;;21.86;32.27;101319.73;108125;1286;21989;-58
2023/09/26 02:03:16;;;;;;;13.00;4.30;;;;;;;21.85;32.39;101321.38;108121;1283;21989;-58
2023/09/26 02:05:42;;;;;;;10.00;4.60;;;;;;;21.84;32.38;101320.91;108129;1281;21998;-62
2023/09/26 02:08:08;;;;;;;10.50;4.30;;;;;;;21.83;32.41;101320.61;108146;1288;22079;-60
2023/09/26 02:10:34;;;;;;;9.00;4.10;;;;;;;21.81;32.46;101319.42;108143;1288;22029;-65
2023/09/26 02:12:59;;;;;;;9.10;4.40;;;;;;;21.79;32.47;101320.77;108189;1288;21998;-58
2023/09/26 02:15:25;;;;;;;13.00;4.20;;;;;;;21.78;32.36;101326.18;106625;1288;1002709;-59
2023/09/26 02:17:51;;;;;;;8.80;4.50;;;;;;;21.76;32.40;101326.98;108152;1288;22000;-63
2023/09/26 02:20:18;;;;;;;17.90;4.30;;;;;;;21.72;32.44;101326.42;108128;1288;23060;-59
2023/09/26 02:22:46;;;;;;;9.90;4.20;;;;;;;21.70;32.47;101327.41;108096;1287;21986;-58
2023/09/26 02:25:12;;;;;;;9.00;4.10;;;;;;;21.68;32.51;101330.33;108207;1288;22099;-59
2023/09/26 02:27:38;;;;;;;7.90;4.60;;;;;;;21.66;32.46;101326.66;108096;1283;21993;-58
2023/09/26 02:30:08;;;;;;;12.90;4.20;;;;;;;21.64;32.40;101325.90;108150;1288;21993;-64
2023/09/26 02:32:34;;;;;;;11.80;4.50;;;;;;;21.61;32.52;101327.77;108154;1288;22015;-64
2023/09/26 02:35:02;;;;;;;8.30;4.30;;;;;;;21.59;32.49;101328.03;108115;1283;21998;-65
2023/09/26 02:37:27;;;;;;;11.40;4.30;;;;;;;21.57;32.54;101327.61;108099;1288;21993;-59
2023/09/26 02:39:53;;;;;;;9.80;4.40;;;;;;;21.54;32.60;101325.76;108145;1288;21998;-59
2023/09/26 02:42:19;;;;;;;9.10;4.50;;;;;;;21.52;32.60;101328.33;108136;1288;22047;-58
2023/09/26 02:44:44;;;;;;;9.90;4.50;;;;;;;21.51;32.57;101330.35;108114;1283;22066;-64
2023/09/26 02:47:10;;;;;;;10.60;4.30;;;;;;;21.49;32.52;101332.04;108085;1277;22011;-59
2023/09/26 02:49:35;;;;;;;10.70;4.60;;;;;;;21.48;32.68;101333.52;108107;1286;22004;-59
2023/09/26 02:52:01;;;;;;;10.80;4.20;;;;;;;21.46;32.54;101334.47;107879;1288;21985;-64
2023/09/26 02:54:27;;;;;;;9.70;4.60;;;;;;;21.44;32.68;101335.80;108151;1288;22009;-59
2023/09/26 02:56:52;;;;;;;11.10;4.50;;;;;;;21.43;32.68;101338.73;107358;1280;1002697;-61
2023/09/26 02:59:18;;;;;;;9.50;4.20;;;;;;;21.40;32.61;101340.45;107910;1279;22000;-58
2023/09/26 03:01:43;;;;;;;9.00;4.50;;;;;;;21.36;32.68;101337.95;108123;1281;22291;-58
2023/09/26 03:04:09;;;;;;;12.90;4.70;;;;;;;21.32;32.71;101341.50;108053;1282;21991;-59
2023/09/26 03:06:34;;;;;;;12.80;4.60;;;;;;;21.30;32.70;101343.38;108047;1283;21991;-58
2023/09/26 03:09:00;;;;;;;11.10;4.60;;;;;;;21.28;32.65;101345.79;108075;1288;21994;-58
2023/09/26 03:11:26;;;;;;;20.90;4.80;;;;;;;21.25;32.74;101345.34;107791;1288;22003;-58
2023/09/26 03:13:51;;;;;;;8.70;4.60;;;;;;;21.22;32.79;101342.06;108077;1288;21990;-61
2023/09/26 03:16:18;;;;;;;11.10;4.10;;;;;;;21.19;32.77;101343.10;108075;1277;21992;-58
2023/09/26 03:18:45;;;;;;;16.30;5.00;;;;;;;21.16;32.81;101342.89;108086;1288;21995;-58
2023/09/26 03:21:13;;;;;;;11.30;4.30;;;;;;;21.13;32.81;101346.23;108090;1283;21984;-59
2023/09/26 03:23:39;;;;;;;10.90;5.10;;;;;;;21.09;32.87;101346.55;108106;1283;21992;-58
2023/09/26 03:26:13;;;;;;;10.50;4.50;;;;;;;21.06;32.96;101344.16;108079;1283;21977;-60
2023/09/26 03:28:39;;;;;;;18.40;5.20;;;;;;;21.03;32.88;101343.23;108074;1288;22010;-65
2023/09/26 03:31:05;;;;;;;8.80;4.60;;;;;;;21.00;33.02;101349.41;108086;1287;21993;-59
2023/09/26 03:33:32;;;;;;;13.70;5.30;;;;;;;20.98;32.99;101353.42;108203;1287;21999;-58
2023/09/26 03:35:59;;;;;;;11.10;5.20;;;;;;;20.95;33.07;101352.82;107877;1282;21999;-64
2023/09/26 03:38:24;;;;;;;9.70;5.30;;;;;;;20.93;33.13;101352.90;108147;1277;21998;-58
2023/09/26 03:41:03;;;;;;;14.60;5.00;;;;;;;20.90;33.07;101356.23;108165;1283;22010;-58
2023/09/26 03:43:29;;;;;;;10.70;4.30;;;;;;;20.88;33.12;101355.59;108130;1276;23759;-58
2023/09/26 03:45:59;;;;;;;12.20;4.90;;;;;;;20.85;33.20;101356.25;108179;1283;21995;-58
2023/09/26 03:48:25;;;;;;;20.70;5.30;;;;;;;20.83;33.18;101359.93;107423;1288;1002240;-66
2023/09/26 03:50:51;;;;;;;13.90;4.80;;;;;;;20.80;33.16;101361.79;108081;1283;21993;-66
2023/09/26 03:53:17;;;;;;;13.40;4.80;;;;;;;20.78;33.31;101360.61;108123;1287;21995;-59
2023/09/26 03:55:42;;;;;;;16.80;5.40;;;;;;;20.77;33.27;101365.30;108085;1277;22012;-58
2023/09/26 03:58:08;;;;;;;14.40;5.10;;;;;;;20.74;33.31;101366.83;108120;1288;22027;-58
2023/09/26 04:00:34;;;;;;;11.30;5.00;;;;;;;20.72;33.36;101368.16;108146;1277;22101;-66
2023/09/26 04:03:01;;;;;;;13.10;4.40;;;;;;;20.70;33.44;101368.77;108167;1276;22160;-58
2023/09/26 04:05:27;;;;;;;11.80;4.80;;;;;;;20.68;33.37;101372.04;108118;1277;21998;-66
2023/09/26 04:07:53;;;;;;;10.50;4.60;;;;;;;20.67;33.42;101373.84;108067;1277;21995;-58
2023/09/26 04:10:18;;;;;;;10.90;5.30;;;;;;;20.67;33.53;101377.17;108105;1288;22029;-58
2023/09/26 04:12:44;;;;;;;15.60;5.80;;;;;;;20.68;33.44;101379.74;108068;1288;22084;-65
2023/09/26 04:15:10;;;;;;;9.60;5.00;;;;;;;20.68;33.51;101380.64;108104;1277;22014;-57
2023/09/26 04:17:36;;;;;;;12.10;5.40;;;;;;;20.68;33.60;101380.80;108102;1283;22006;-58
2023/09/26 04:20:09;;;;;;;10.70;4.60;;;;;;;20.69;33.58;101382.52;108088;1288;21992;-58
2023/09/26 04:22:37;;;;;;;13.20;4.50;;;;;;;20.71;33.61;101381.54;108113;1288;21991;-65
2023/09/26 04:25:03;;;;;;;19.60;6.00;;;;;;;20.76;33.66;101383.88;108090;1283;22000;-58
2023/09/26 04:27:29;;;;;;;9.50;4.20;;;;;;;20.79;33.65;101384.12;108117;1286;21988;-59
2023/09/26 04:29:54;;;;;;;10.40;5.10;;;;;;;20.84;33.74;101388.06;108077;1288;22000;-59
2023/09/26 04:32:20;;;;;;;9.40;5.20;;;;;;;20.89;33.67;101390.02;108094;1283;22458;-65
2023/09/26 04:34:46;;;;;;;25.70;6.50;;;;;;;20.94;33.77;101395.16;108088;1280;22355;-65
2023/09/26 04:37:11;;;;;;;16.90;6.10;;;;;;;20.98;33.87;101391.94;108085;1288;22050;-65
2023/09/26 04:39:37;;;;;;;18.90;5.70;;;;;;;21.05;33.74;101394.52;108091;1283;22726;-65
2023/09/26 04:42:03;;;;;;;11.40;5.10;;;;;;;21.13;33.84;101397.06;106603;1288;1003113;-58
2023/09/26 04:44:30;;;;;;;10.40;4.70;;;;;;;21.21;33.96;101396.92;108106;1287;21984;-60
2023/09/26 04:46:57;;;;;;;12.60;4.70;;;;;;;21.28;33.78;101392.72;107791;1283;22751;-64
2023/09/26 04:49:22;;;;;;;9.30;4.30;;;;;;;21.35;33.79;101392.61;108191;1283;22083;-59
2023/09/26 04:51:48;;;;;;;17.20;5.30;;;;;;;21.43;33.75;101394.06;108124;1280;21994;-65
2023/09/26 04:54:14;;;;;;;13.00;4.90;;;;;;;21.50;33.67;101390.55;108785;1277;21999;-65
2023/09/26 04:56:40;;;;;;;13.00;5.20;;;;;;;21.58;33.65;101392.73;108147;1280;21993;-64
2023/09/26 04:59:05;;;;;;;10.90;4.70;;;;;;;21.66;33.54;101396.16;108066;1288;23100;-64
2023/09/26 05:01:31;;;;;;;20.90;4.80;;;;;;;21.74;33.62;101395.66;108095;1287;22026;-64
2023/09/26 05:03:56;;;;;;;11.00;5.60;;;;;;;21.83;33.60;101396.33;108130;1280;22025;-65
2023/09/26 05:06:22;;;;;;;15.70;5.40;;;;;;;21.92;33.47;101399.89;108086;1283;22008;-57
2023/09/26 05:08:48;;;;;;;15.70;5.00;;;;;;;22.01;33.52;101400.38;108094;1286;21992;-63
2023/09/26 05:11:14;;;;;;;10.00;4.50;;;;;;;22.11;33.62;101402.77;108152;1278;22002;-58
2023/09/26 05:13:40;;;;;;;11.00;4.70;;;;;;;22.22;33.54;101402.32;108165;1288;22050;-63
2023/09/26 05:16:09;;;;;;;14.70;6.30;;;;;;;22.32;33.44;101405.61;108121;1288;22028;-64
2023/09/26 05:18:35;;;;;;;11.90;5.70;;;;;;;22.43;33.33;101409.42;108144;1288;22011;-57
2023/09/26 05:21:05;;;;;;;15.80;6.30;;;;;;;22.55;33.32;101411.39;108091;1283;22378;-63
2023/09/26 05:23:31;;;;;;;14.50;6.00;;;;;;;22.68;33.18;101416.34;108143;1288;22012;-58
2023/09/26 05:26:09;;;;;;;16.10;6.60;;;;;;;22.80;33.22;101416.30;108056;1288;23139;-58
2023/09/26 05:28:35;;;;;;;16.20;6.50;;;;;;;22.93;33.24;101417.84;108100;1288;21996;-63
2023/09/26 05:31:01;;;;;;;14.60;7.80;;;;;;;23.06;33.06;101417.24;108066;1287;22037;-64
2023/09/26 05:33:26;;;;;;;15.30;8.40;;;;;;;23.17;33.15;101419.04;108092;1283;22008;-59
2023/09/26 05:35:55;;;;;;;15.80;7.40;;;;;;;23.30;33.04;101421.30;108031;1288;22017;-63
2023/09/26 05:38:20;;;;;;;15.40;8.10;;;;;;;23.44;32.96;101416.66;108066;1283;22000;-57
2023/09/26 05:40:47;;;;;;;242.00;28.10;;;;;;;23.60;32.89;101415.70;108077;1288;22014;-64
2023/09/26 05:43:13;;;;;;;115.90;15.10;;;;;;;23.77;32.91;101417.34;108098;1287;21985;-58
2023/09/26 05:45:38;;;;;;;29.10;9.80;;;;;;;23.94;32.59;101418.83;108151;1288;22072;-58
2023/09/26 05:48:04;;;;;;;79.50;12.50;;;;;;;24.10;32.67;101417.83;108094;1279;21996;-64
2023/09/26 05:50:30;;;;;;;26.80;8.70;;;;;;;24.28;32.64;101415.62;108110;1288;21994;-63
2023/09/26 05:52:56;;;;;;;24.10;8.70;;;;;;;24.48;32.60;101416.52;108107;1288;22013;-64
2023/09/26 05:55:22;;;;;;;29.20;9.20;;;;;;;24.67;32.37;101415.50;108109;1288;21990;-64
2023/09/26 05:57:48;;;;;;;22.20;8.30;;;;;;;24.84;32.34;101416.72;108216;1286;21993;-58
2023/09/26 06:00:14;;;;;;;17.00;8.10;;;;;;;25.02;32.18;101413.94;108130;1286;21987;-58
2023/09/26 06:02:40;;;;;;;14.50;8.30;;;;;;;25.18;32.09;101411.36;108181;1288;22322;-65
2023/09/26 06:05:06;;;;;;;16.20;8.30;;;;;;;25.38;31.90;101407.91;108160;1288;21999;-65
2023/09/26 06:07:32;;;;;;;36.70;9.10;;;;;;;25.55;31.78;101409.45;108133;1277;22005;-58
2023/09/26 06:09:58;;;;;;;22.20;8.80;;;;;;;25.70;31.66;101409.86;108100;1288;21998;-64
2023/09/26 06:12:24;;;;;;;22.00;8.20;;;;;;;25.87;31.60;101405.39;108062;1280;21989;-57
2023/09/26 06:14:51;;;;;;;13.50;7.90;;;;;;;26.06;31.48;101402.44;108121;1288;22004;-57
2023/09/26 06:17:16;;;;;;;14.80;7.10;;;;;;;26.25;31.36;101401.33;108121;1287;22001;-57
2023/09/26 06:19:46;;;;;;;13.50;8.00;;;;;;;26.47;31.26;101402.48;108161;1288;22072;-57
2023/09/26 06:22:16;;;;;;;25.30;7.40;;;;;;;26.69;30.97;101401.08;108123;1276;22027;-57
2023/09/26 06:24:42;;;;;;;19.70;7.60;;;;;;;26.86;30.83;101403.08;108092;1287;22003;-65
2023/09/26 06:27:07;;;;;;;19.70;8.20;;;;;;;27.00;30.61;101401.98;108089;1287;21990;-67
2023/09/26 06:29:38;;;;;;;11.00;6.00;;;;;;;27.12;30.57;101402.84;108106;1288;21990;-66
2023/09/26 06:32:03;;;;;;;11.50;6.30;;;;;;;27.31;30.59;101406.08;108140;1287;22002;-66
2023/09/26 06:34:31;;;;;;;12.40;6.40;;;;;;;27.51;30.39;101404.91;108124;1283;23761;-66
2023/09/26 06:36:57;;;;;;;17.20;6.80;;;;;;;27.68;30.36;101407.20;108082;1280;21995;-57
2023/09/26 06:39:23;;;;;;;18.80;7.90;;;;;;;27.85;30.12;101413.08;108203;1288;21999;-64
2023/09/26 06:41:49;;;;;;;18.40;7.20;;;;;;;27.99;30.03;101414.11;108118;1280;22049;-65
2023/09/26 06:44:14;;;;;;;13.60;5.40;;;;;;;28.17;29.84;101414.17;108096;1288;22173;-57
2023/09/26 06:46:40;;;;;;;15.90;5.60;;;;;;;28.35;29.77;101417.39;108087;1288;21997;-65
2023/09/26 06:49:05;;;;;;;10.40;5.00;;;;;;;28.52;29.73;101411.34;108088;1288;21997;-67
2023/09/26 06:51:33;;;;;;;12.60;5.70;;;;;;;28.69;29.60;101411.16;108102;1284;22160;-57
2023/09/26 06:54:01;;;;;;;15.80;5.20;;;;;;;28.91;29.48;101408.73;108089;1287;22002;-65
2023/09/26 06:56:27;;;;;;;37.60;8.00;;;;;;;29.17;29.25;101410.39;108089;1288;21998;-59
2023/09/26 06:58:53;;;;;;;13.90;5.10;;;;;;;29.40;29.10;101412.84;108132;1283;22003;-66
2023/09/26 07:01:19;;;;;;;9.80;4.60;;;;;;;29.58;29.17;101410.63;108137;1280;23658;-65
2023/09/26 07:03:45;;;;;;;13.30;5.00;;;;;;;29.70;28.92;101414.02;108105;1288;21986;-65
2023/09/26 07:06:12;;;;;;;8.50;4.70;;;;;;;29.86;28.91;101412.79;108082;1283;22001;-65
2023/09/26 07:08:38;;;;;;;11.70;4.70;;;;;;;30.02;28.80;101414.98;108115;1282;21991;-58
2023/09/26 07:11:04;;;;;;;9.00;5.20;;;;;;;30.18;28.55;101413.59;108140;1288;21992;-57
2023/09/26 07:13:30;;;;;;;12.30;5.40;;;;;;;30.36;28.20;101413.63;108132;1288;22004;-58
2023/09/26 07:15:59;;;;;;;14.30;5.80;;;;;;;30.48;27.91;101410.89;108102;1287;21988;-64
2023/09/26 07:18:25;;;;;;;15.50;4.70;;;;;;;30.44;27.78;101412.65;108098;1283;22044;-57
2023/09/26 07:20:51;;;;;;;13.00;5.00;;;;;;;30.40;27.75;101410.61;108102;1287;22050;-58
2023/09/26 07:23:17;;;;;;;12.00;5.00;;;;;;;30.47;27.82;101409.48;108076;1288;21992;-64
2023/09/26 07:25:42;;;;;;;11.30;4.60;;;;;;;30.62;27.87;101408.14;108096;1288;22002;-65
2023/09/26 07:28:08;;;;;;;12.20;4.60;;;;;;;30.77;27.80;101410.19;108087;1287;21990;-58
2023/09/26 07:30:34;;;;;;;12.30;4.60;;;;;;;30.94;27.61;101409.49;108079;1279;22268;-58
2023/09/26 07:33:00;;;;;;;11.40;4.00;;;;;;;31.08;27.58;101406.34;108148;1288;21982;-65
2023/09/26 07:35:27;;;;;;;14.50;4.90;;;;;;;31.23;27.51;101405.13;108101;1276;23141;-57
2023/09/26 07:37:54;;;;;;;6.70;4.40;;;;;;;31.45;27.38;101406.42;108093;1280;21996;-58
2023/09/26 07:40:19;;;;;;;10.20;4.80;;;;;;;31.64;27.15;101403.91;108125;1288;21998;-65
2023/09/26 07:42:45;;;;;;;8.60;4.30;;;;;;;31.82;27.00;101405.64;108082;1280;21995;-57
2023/09/26 07:45:14;;;;;;;9.50;4.00;;;;;;;32.06;26.81;101407.13;108104;1283;21984;-58
2023/09/26 07:47:39;;;;;;;6.70;3.80;;;;;;;32.32;26.76;101406.02;108135;1283;21990;-65
2023/09/26 07:50:06;;;;;;;10.90;3.80;;;;;;;32.51;26.61;101403.98;108061;1288;21988;-65
2023/09/26 07:52:32;;;;;;;10.90;4.10;;;;;;;32.73;26.53;101408.57;108150;1287;21990;-57
2023/09/26 07:54:58;;;;;;;6.60;3.60;;;;;;;32.91;26.38;101410.75;108077;1288;22048;-58
2023/09/26 07:57:23;;;;;;;10.40;3.60;;;;;;;33.06;26.23;101403.94;108087;1280;22160;-65
2023/09/26 07:59:49;;;;;;;8.60;3.40;;;;;;;33.22;26.06;101401.36;108057;1283;21992;-65
2023/09/26 08:02:15;;;;;;;10.60;4.10;;;;;;;33.37;25.89;101399.46;108090;1287;21996;-66
2023/09/26 08:04:40;;;;;;;7.10;3.50;;;;;;;33.46;25.80;101396.65;108091;1288;21987;-58
2023/09/26 08:07:06;;;;;;;12.80;4.50;;;;;;;33.60;25.71;101392.21;108066;1288;21977;-65
2023/09/26 08:09:32;;;;;;;7.20;3.50;;;;;;;33.77;25.57;101392.66;108109;1287;22556;-65
2023/09/26 08:11:58;;;;;;;7.00;3.20;;;;;;;33.93;25.60;101388.95;108076;1288;22027;-58
2023/09/26 08:14:24;;;;;;;9.00;3.20;;;;;;;34.07;25.13;101389.83;108149;1279;22037;-58
2023/09/26 08:16:50;;;;;;;6.90;2.60;;;;;;;34.16;24.97;101388.54;108123;1288;21992;-66
2023/09/26 08:19:16;;;;;;;5.50;2.90;;;;;;;34.33;24.89;101385.67;108067;1283;21994;-65
2023/09/26 08:21:42;;;;;;;7.20;3.40;;;;;;;34.55;24.77;101384.84;108180;1288;21990;-64
2023/09/26 08:24:08;;;;;;;8.10;3.50;;;;;;;34.80;24.99;101385.50;108235;1275;21994;-59
2023/09/26 08:26:34;;;;;;;7.10;2.80;;;;;;;34.95;24.82;101386.90;108129;1280;22001;-64
2023/09/26 08:29:00;;;;;;;9.60;3.00;;;;;;;35.11;24.68;101382.56;108128;1288;22000;-65
2023/09/26 08:31:26;;;;;;;6.30;3.10;;;;;;;35.28;24.23;101383.52;108062;1288;21986;-60
2023/09/26 08:33:51;;;;;;;5.70;2.90;;;;;;;35.50;24.18;101381.56;108114;1288;21990;-59
2023/09/26 08:36:20;;;;;;;5.20;2.70;;;;;;;35.70;24.15;101379.45;108053;1279;21951;-65
2023/09/26 08:38:47;;;;;;;6.90;2.40;;;;;;;35.89;24.09;101378.05;107895;1279;22295;-65
2023/09/26 08:41:13;;;;;;;4.90;2.70;;;;;;;36.00;24.12;101379.10;108068;1287;22001;-65
2023/09/26 08:43:39;;;;;;;10.80;2.80;;;;;;;36.05;24.00;101373.83;108000;1277;22011;-58
2023/09/26 08:46:05;;;;;;;9.00;2.80;;;;;;;36.14;23.97;101375.27;108042;1284;21995;-64
2023/09/26 08:48:34;;;;;;;5.80;3.00;;;;;;;36.31;23.74;101375.29;108090;1285;21998;-59
2023/09/26 08:51:00;;;;;;;6.10;2.90;;;;;;;36.51;23.55;101374.90;107946;1279;21990;-64
2023/09/26 08:53:26;;;;;;;5.10;2.70;;;;;;;36.68;23.53;101370.29;108123;1288;21991;-65
2023/09/26 08:55:52;;;;;;;7.10;2.40;;;;;;;36.84;23.46;101366.52;108095;1283;22001;-65
2023/09/26 08:58:19;;;;;;;6.00;2.60;;;;;;;36.99;23.18;101367.12;108057;1283;21992;-65
2023/09/26 09:00:45;;;;;;;4.90;2.90;;;;;;;37.12;23.16;101366.71;108108;1288;21991;-60
2023/09/26 09:03:10;;;;;;;10.00;2.70;;;;;;;37.26;23.06;101363.23;108062;1283;22021;-64
2023/09/26 09:05:36;;;;;;;7.60;2.80;;;;;;;37.39;22.92;101361.84;107999;1288;23699;-65
2023/09/26 09:08:03;;;;;;;7.70;2.50;;;;;;;37.46;22.85;101360.08;108072;1288;21989;-60
2023/09/26 09:10:29;;;;;;;8.20;2.60;;;;;;;37.55;22.81;101359.70;108148;1286;21990;-64
2023/09/26 09:13:03;;;;;;;8.80;2.70;;;;;;;37.63;22.70;101358.00;108066;1288;21999;-59
2023/09/26 09:15:29;;;;;;;4.50;2.90;;;;;;;37.62;22.53;101357.08;108137;1288;23622;-59
2023/09/26 09:17:55;;;;;;;7.10;2.40;;;;;;;37.66;22.47;101356.77;108088;1288;23297;-65
2023/09/26 09:20:29;;;;;;;4.90;2.20;;;;;;;37.75;22.32;101354.89;108081;1287;21987;-59
2023/09/26 09:23:02;;;;;;;5.90;2.30;;;;;;;37.84;22.37;101353.88;108169;1287;22000;-65
2023/09/26 09:25:32;;;;;;;10.50;2.50;;;;;;;37.98;22.27;101349.60;108115;1288;22047;-59
2023/09/26 09:28:02;;;;;;;7.10;2.50;;;;;;;38.11;22.01;101345.16;108085;1274;21978;-64
2023/09/26 09:30:28;;;;;;;7.00;2.50;;;;;;;38.22;22.00;101345.11;108093;1288;22455;-59
2023/09/26 09:32:54;;;;;;;7.30;2.60;;;;;;;38.34;21.84;101341.41;108082;1287;22173;-64
2023/09/26 09:35:20;;;;;;;5.60;2.60;;;;;;;38.45;21.76;101342.71;107922;1288;21999;-59
2023/09/26 09:37:50;;;;;;;7.50;2.80;;;;;;;38.53;21.76;101343.73;107866;1288;21995;-59
2023/09/26 09:40:20;;;;;;;5.40;2.70;;;;;;;38.57;21.55;101344.36;108092;1288;21990;-59
2023/09/26 09:42:49;;;;;;;8.00;2.80;;;;;;;38.59;21.55;101345.29;108153;1286;21990;-59
2023/09/26 09:45:16;;;;;;;6.90;2.40;;;;;;;38.65;21.50;101342.14;108095;1277;22000;-64
2023/09/26 09:47:46;;;;;;;10.60;2.90;;;;;;;38.74;21.34;101343.38;108102;1283;21993;-65
2023/09/26 09:50:13;;;;;;;5.50;3.10;;;;;;;38.83;21.19;101344.83;108099;1287;21992;-59
2023/09/26 09:52:41;;;;;;;6.80;2.80;;;;;;;38.92;21.32;101344.33;108157;1280;21979;-64
2023/09/26 09:55:08;;;;;;;5.20;3.00;;;;;;;39.00;21.19;101338.63;108106;1288;21984;-59
2023/09/26 09:57:37;;;;;;;9.40;3.40;;;;;;;39.05;21.07;101338.66;107912;1288;23615;-64
2023/09/26 10:00:05;;;;;;;7.20;3.00;;;;;;;38.96;20.98;101337.59;108126;1283;23076;-59
2023/09/26 10:02:31;;;;;;;6.10;3.30;;;;;;;38.91;21.03;101332.78;108095;1277;22463;-59
2023/09/26 10:04:59;;;;;;;8.40;3.40;;;;;;;38.99;20.81;101329.84;107886;1288;21990;-59
2023/09/26 10:07:26;;;;;;;5.50;3.20;;;;;;;39.09;20.75;101331.67;107750;1288;22017;-59
2023/09/26 10:09:52;;;;;;;6.90;3.10;;;;;;;39.17;20.73;101329.48;108071;1283;21990;-60
2023/09/26 10:12:18;;;;;;;7.30;3.40;;;;;;;39.26;20.49;101328.22;107843;1288;23724;-59
2023/09/26 10:14:43;;;;;;;6.50;3.20;;;;;;;39.37;20.55;101325.84;108038;1282;22000;-59
2023/09/26 10:17:10;;;;;;;9.60;3.20;;;;;;;39.48;20.30;101330.23;108035;1279;22000;-59
2023/09/26 10:19:36;;;;;;;9.70;3.10;;;;;;;39.57;20.21;101326.25;107636;1289;22011;-59
2023/09/26 10:22:20;;;;;;;12.70;3.40;;;;;;;39.67;20.16;101322.37;107849;1289;23664;-59
2023/09/26 10:24:52;;;;;;;7.10;2.80;;;;;;;39.74;20.14;101319.33;107882;1289;21998;-59
2023/09/26 10:27:45;;;;;;;7.00;2.90;;;;;;;39.82;20.10;101321.84;107820;1289;22944;-59
2023/09/26 10:30:11;;;;;;;8.10;2.40;;;;;;;39.89;20.05;101320.11;107884;1286;22782;-59
2023/09/26 10:32:41;;;;;;;3.30;1.90;;;;;;;39.96;19.75;101320.81;107838;1285;22005;-59
2023/09/26 10:35:13;;;;;;;5.10;2.20;;;;;;;40.00;19.52;101322.34;107868;1289;24437;-59
2023/09/26 10:37:45;;;;;;;6.60;2.20;;;;;;;40.02;19.62;101316.81;107906;1289;23609;-59
2023/09/26 10:40:12;;;;;;;6.30;1.90;;;;;;;40.00;19.66;101305.62;107872;1289;22002;-59
2023/09/26 10:42:43;;;;;;;6.90;2.30;;;;;;;40.02;19.47;101311.30;107889;1278;21994;-58
2023/09/26 10:45:10;;;;;;;3.50;2.20;;;;;;;40.09;19.62;101309.48;107639;1289;22028;-59
2023/09/26 10:47:38;;;;;;;20.80;3.70;;;;;;;40.16;19.29;101306.44;107874;1289;22022;-63
2023/09/26 10:50:08;;;;;;;5.80;2.20;;;;;;;40.22;19.22;101304.05;107907;1289;22006;-64
2023/09/26 10:52:34;;;;;;;6.20;2.30;;;;;;;40.26;19.08;101298.02;107837;1283;22001;-64
2023/09/26 10:55:00;;;;;;;8.00;2.40;;;;;;;40.30;19.30;101295.30;107728;1283;21993;-59
2023/09/26 10:57:26;;;;;;;3.90;2.00;;;;;;;40.38;19.13;101290.98;107878;1277;21995;-59
2023/09/26 10:59:54;;;;;;;8.30;2.50;;;;;;;40.45;18.80;101288.33;107847;1289;22323;-65
2023/09/26 11:02:20;;;;;;;9.10;2.30;;;;;;;40.48;19.01;101292.14;107907;1283;21990;-64
2023/09/26 11:04:46;;;;;;;6.80;2.50;;;;;;;40.47;19.11;101289.38;107690;1289;22030;-64
2023/09/26 11:07:12;;;;;;;4.60;2.30;;;;;;;40.46;18.90;101289.27;107857;1283;22062;-64
2023/09/26 11:09:40;;;;;;;6.10;2.70;;;;;;;40.49;18.77;101287.83;107858;1289;21991;-64